Main page
METAR-TAF:

METAR-TAF

Airports :

City of Derry Airport

Derry, Northern Ireland

latitude: 55-03N, longitude: 007-09W, elevation: 9 m

Current weather observation

The report was made 3 hours and 43 minutes ago, at 19:20 UTC
Wind 8 kt from the East/Northeast
Temperature 19°C
Humidity 78%
Pressure 1028 hPa
Visibility 10 km or more
Few clouds at a height of 4000 ft

METAR: EGAE 091920Z 06008KT 9999 FEW040 19/15 Q1028

Time: 00:03 (23:03 UTC)

Forecast

The report was made 6 hours and 2 minutes ago, at 17:01 UTC
Forecast valid from 09 at 18 UTC to 09 at 20 UTC
Wind 9 kt from the Northeast
Visibility 10 km or more
Few clouds at a height of 4000 ft

TAF: EGAE 091701Z 0918/0920 05009KT 9999 FEW040

Weather observations and forecasts of more than 4000 airports (METAR and TAF reports).

The available stations are represented by yellow and red dots on the map.

Hover mouse over dot to see the name of the station.

Then click to see weather observations and forecasts.

To change the map : click on the green buttons with a black cross to zoom in, on the green button with a dash to zoom out, or on the green arrows for adjacent maps.


METAR-TAF: